createdAt,value
2023-04-18T00:01:33.335Z,10.15
2023-04-18T00:04:00.082Z,11.93
2023-04-18T00:06:27.006Z,10.85
2023-04-18T00:08:53.748Z,11.15
2023-04-18T00:11:20.671Z,11.50
2023-04-18T00:13:47.567Z,10.23
2023-04-18T00:16:14.424Z,11.02
2023-04-18T00:18:41.145Z,10.95
2023-04-18T00:21:08.622Z,10.77
2023-04-18T00:23:35.995Z,10.82
2023-04-18T00:26:02.925Z,9.93
2023-04-18T00:28:29.611Z,10.25
2023-04-18T00:30:56.343Z,10.18
2023-04-18T00:33:23.089Z,10.00
2023-04-18T00:35:49.720Z,10.38
2023-04-18T00:38:16.417Z,10.57
2023-04-18T00:40:43.174Z,10.68
2023-04-18T00:43:12.383Z,10.27
2023-04-18T00:45:39.035Z,11.00
2023-04-18T00:48:05.959Z,11.30
2023-04-18T00:50:32.820Z,10.77
2023-04-18T00:52:59.703Z,10.23
2023-04-18T00:55:26.491Z,10.40
2023-04-18T00:57:53.623Z,10.70
2023-04-18T01:00:20.406Z,11.02
2023-04-18T01:02:49.663Z,10.25
2023-04-18T01:05:18.669Z,10.75
2023-04-18T01:07:45.471Z,10.25
2023-04-18T01:10:12.295Z,9.85
2023-04-18T01:12:39.512Z,9.68
2023-04-18T01:15:07.031Z,10.50
2023-04-18T01:17:36.549Z,10.73
2023-04-18T01:20:06.216Z,10.27
2023-04-18T01:22:33.544Z,9.60
2023-04-18T01:25:00.553Z,10.02
2023-04-18T01:27:27.219Z,9.23
2023-04-18T01:29:53.953Z,10.00
2023-04-18T01:32:21.346Z,10.40
2023-04-18T01:34:48.071Z,10.18
2023-04-18T01:37:14.794Z,10.02
2023-04-18T01:39:41.421Z,9.07
2023-04-18T01:42:08.178Z,9.48
2023-04-18T01:44:34.878Z,10.38
2023-04-18T01:47:01.695Z,9.55
2023-04-18T01:49:28.557Z,10.10
2023-04-18T01:51:55.328Z,9.63
2023-04-18T01:54:22.051Z,9.20
2023-04-18T01:56:48.709Z,9.15
2023-04-18T01:59:15.350Z,9.18
2023-04-18T02:01:42.322Z,10.00
2023-04-18T02:04:09.002Z,9.65
2023-04-18T02:06:35.961Z,8.48
2023-04-18T02:09:02.612Z,8.98
2023-04-18T02:11:30.022Z,9.63
2023-04-18T02:13:56.734Z,8.70
2023-04-18T02:16:23.466Z,8.25
2023-04-18T02:18:52.682Z,9.55
2023-04-18T02:21:19.364Z,9.55
2023-04-18T02:23:46.081Z,9.38
2023-04-18T02:26:12.726Z,9.20
2023-04-18T02:28:39.643Z,9.38
2023-04-18T02:31:07.365Z,9.30
2023-04-18T02:33:34.065Z,9.98
2023-04-18T02:36:01.759Z,9.20
2023-04-18T02:38:28.501Z,8.95
2023-04-18T02:40:56.014Z,9.07
2023-04-18T02:43:22.725Z,9.82
2023-04-18T02:45:49.540Z,8.38
2023-04-18T02:48:16.291Z,9.15
2023-04-18T02:50:42.974Z,8.48
2023-04-18T02:53:09.627Z,9.57
2023-04-18T02:55:37.424Z,8.43
2023-04-18T02:58:04.052Z,9.45
2023-04-18T03:00:30.816Z,8.52
2023-04-18T03:02:57.625Z,9.20
2023-04-18T03:05:24.499Z,8.20
2023-04-18T03:07:51.195Z,8.48
2023-04-18T03:10:17.988Z,8.48
2023-04-18T03:12:44.643Z,8.93
2023-04-18T03:15:11.782Z,8.90
2023-04-18T03:17:39.114Z,8.80
2023-04-18T03:20:06.408Z,8.20
2023-04-18T03:22:33.038Z,8.35
2023-04-18T03:25:00.682Z,9.20
2023-04-18T03:27:27.364Z,9.27
2023-04-18T03:29:54.045Z,8.68
2023-04-18T03:32:20.921Z,8.50
2023-04-18T03:34:47.887Z,8.85
2023-04-18T03:37:14.686Z,8.85
2023-04-18T03:39:41.343Z,8.85
2023-04-18T03:42:07.981Z,8.73
2023-04-18T03:44:34.761Z,8.73
2023-04-18T03:47:01.576Z,8.50
2023-04-18T03:49:28.245Z,9.02
2023-04-18T03:51:55.023Z,8.30
2023-04-18T03:54:21.699Z,8.10
2023-04-18T03:56:48.401Z,7.38
2023-04-18T03:59:15.670Z,8.50
2023-04-18T04:01:42.503Z,8.70
2023-04-18T04:04:11.856Z,8.38
2023-04-18T04:06:39.024Z,8.45
2023-04-18T04:09:05.662Z,8.63
2023-04-18T04:11:32.357Z,9.43
2023-04-18T04:13:59.024Z,8.90
2023-04-18T04:16:25.847Z,9.50
2023-04-18T04:18:52.511Z,8.88
2023-04-18T04:21:20.657Z,10.43
2023-04-18T04:23:48.022Z,12.30
2023-04-18T04:26:17.385Z,12.23
2023-04-18T04:28:46.443Z,11.05
2023-04-18T04:31:13.231Z,9.30
2023-04-18T04:33:40.974Z,9.93
2023-04-18T04:36:08.875Z,10.20
2023-04-18T04:38:38.224Z,10.50
2023-04-18T04:41:09.208Z,9.85
2023-04-18T04:43:36.248Z,9.85
2023-04-18T04:46:04.099Z,9.77
2023-04-18T04:48:30.852Z,10.98
2023-04-18T04:50:58.660Z,9.90
2023-04-18T04:53:27.953Z,11.73
2023-04-18T04:55:54.700Z,10.25
2023-04-18T04:58:21.415Z,9.05
2023-04-18T05:00:48.172Z,9.90
2023-04-18T05:03:14.936Z,9.13
2023-04-18T05:05:41.885Z,9.02
2023-04-18T05:08:08.639Z,9.85
2023-04-18T05:10:37.034Z,9.15
2023-04-18T05:13:04.251Z,9.70
2023-04-18T05:15:31.468Z,8.52
2023-04-18T05:17:58.837Z,9.07
2023-04-18T05:20:25.617Z,8.60
2023-04-18T05:22:52.366Z,9.10
2023-04-18T05:25:19.728Z,8.88
2023-04-18T05:27:47.037Z,7.82
2023-04-18T05:30:13.895Z,9.48
2023-04-18T05:32:40.710Z,8.45
2023-04-18T05:35:08.041Z,8.60
2023-04-18T05:37:34.722Z,8.73
2023-04-18T05:40:01.503Z,8.95
2023-04-18T05:42:28.144Z,8.68
2023-04-18T05:44:54.766Z,7.85
2023-04-18T05:47:21.522Z,8.75
2023-04-18T05:49:48.172Z,8.60
2023-04-18T05:52:14.939Z,7.90
2023-04-18T05:54:41.597Z,7.03
2023-04-18T05:57:08.268Z,7.07
2023-04-18T05:59:34.908Z,7.50
2023-04-18T06:02:01.923Z,6.55
2023-04-18T06:04:28.808Z,6.28
2023-04-18T06:06:55.756Z,6.22
2023-04-18T06:09:22.406Z,5.95
2023-04-18T06:11:49.139Z,6.20
2023-04-18T06:14:16.095Z,5.50
2023-04-18T06:16:43.077Z,5.65
2023-04-18T06:19:09.760Z,6.28
2023-04-18T06:21:36.395Z,6.55
2023-04-18T06:24:03.100Z,6.85
2023-04-18T06:26:31.975Z,5.57
2023-04-18T06:28:58.685Z,6.50
2023-04-18T06:31:25.512Z,5.60
2023-04-18T06:33:52.265Z,8.25
2023-04-18T06:36:19.356Z,14.13
2023-04-18T06:38:46.021Z,5.90
2023-04-18T06:41:14.484Z,7.50
2023-04-18T06:43:49.170Z,15.40
2023-04-18T06:46:26.480Z,9.50
2023-04-18T06:48:53.210Z,7.65
2023-04-18T06:51:19.877Z,6.35
2023-04-18T06:53:47.518Z,6.93
2023-04-18T06:56:14.205Z,6.20
2023-04-18T06:58:40.916Z,6.20
2023-04-18T07:01:07.641Z,5.70
2023-04-18T07:03:34.471Z,6.15
2023-04-18T07:06:01.359Z,6.70
2023-04-18T07:08:28.041Z,6.97
2023-04-18T07:10:54.717Z,7.75
2023-04-18T07:13:21.368Z,6.07
2023-04-18T07:15:48.031Z,5.80
2023-04-18T07:18:20.504Z,6.63
2023-04-18T07:20:53.327Z,5.78
2023-04-18T07:23:19.974Z,7.75
2023-04-18T07:25:46.684Z,8.27
2023-04-18T07:28:13.327Z,7.22
2023-04-18T07:30:40.019Z,7.30
2023-04-18T07:33:06.820Z,10.23
2023-04-18T07:35:33.859Z,6.38
2023-04-18T07:38:01.082Z,7.32
2023-04-18T07:40:27.827Z,5.88
2023-04-18T07:42:54.471Z,6.05
2023-04-18T07:45:21.350Z,5.70
2023-04-18T07:47:48.051Z,6.03
2023-04-18T07:50:14.751Z,6.55
2023-04-18T07:52:41.379Z,6.35
2023-04-18T07:55:08.472Z,5.85
2023-04-18T07:57:35.266Z,5.88
2023-04-18T08:00:02.086Z,5.97
2023-04-18T08:02:28.928Z,5.65
2023-04-18T08:04:56.180Z,7.13
2023-04-18T08:07:23.065Z,5.60
2023-04-18T08:09:49.757Z,5.35
2023-04-18T08:12:16.465Z,5.82
2023-04-18T08:14:43.177Z,6.53
2023-04-18T08:17:09.869Z,6.47
2023-04-18T08:19:36.504Z,5.60
2023-04-18T08:22:10.599Z,6.10
2023-04-18T08:24:42.952Z,6.20
2023-04-18T08:27:15.294Z,7.57
2023-04-18T08:29:42.115Z,7.20
2023-04-18T08:32:08.834Z,6.50
2023-04-18T08:34:38.456Z,5.88
2023-04-18T08:37:05.676Z,6.20
2023-04-18T08:39:32.350Z,5.70
2023-04-18T08:42:00.158Z,5.38
2023-04-18T08:44:30.504Z,6.00
2023-04-18T08:46:57.601Z,7.78
2023-04-18T08:49:24.848Z,13.88
2023-04-18T08:51:52.345Z,9.18
2023-04-18T08:54:20.821Z,10.15
2023-04-18T08:56:47.828Z,11.10
2023-04-18T08:59:14.695Z,22.05
2023-04-18T09:01:59.298Z,8.40
2023-04-18T09:04:48.497Z,8.15
2023-04-18T09:07:16.965Z,7.25
2023-04-18T09:09:56.560Z,6.50
2023-04-18T09:12:25.375Z,6.57
2023-04-18T09:14:57.846Z,5.45
2023-04-18T09:17:34.546Z,8.65
2023-04-18T09:20:02.363Z,7.85
2023-04-18T09:22:50.314Z,7.15
2023-04-18T09:25:40.817Z,6.75
2023-04-18T09:28:31.790Z,7.82
2023-04-18T09:31:09.297Z,5.85
2023-04-18T09:33:37.013Z,8.57
2023-04-18T09:36:21.359Z,7.10
2023-04-18T09:38:49.845Z,8.57
2023-04-18T09:41:19.904Z,10.77
2023-04-18T09:43:47.961Z,7.15
2023-04-18T09:46:17.456Z,7.60
2023-04-18T09:48:44.238Z,6.90
2023-04-18T09:51:14.697Z,7.65
2023-04-18T09:53:44.597Z,8.48
2023-04-18T09:56:31.950Z,8.20
2023-04-18T09:59:08.373Z,7.40
2023-04-18T10:01:35.987Z,8.07
2023-04-18T10:04:06.359Z,8.40
2023-04-18T10:06:35.077Z,7.03
2023-04-18T10:09:04.423Z,7.55
2023-04-18T10:11:31.968Z,7.50
2023-04-18T10:14:03.337Z,8.20
2023-04-18T10:16:32.126Z,8.23
2023-04-18T10:19:29.993Z,7.70
2023-04-18T10:21:58.756Z,7.75
2023-04-18T10:24:54.449Z,8.30
2023-04-18T10:27:48.808Z,8.25
2023-04-18T10:30:16.611Z,8.48
2023-04-18T10:32:43.535Z,8.40
2023-04-18T10:35:11.221Z,8.50
2023-04-18T10:37:59.512Z,7.93
2023-04-18T10:40:33.567Z,7.95
2023-04-18T10:43:00.476Z,8.32
2023-04-18T10:45:29.688Z,8.10
2023-04-18T10:48:25.464Z,7.75
2023-04-18T10:51:14.811Z,7.88
2023-04-18T10:53:53.867Z,7.72
2023-04-18T10:56:21.628Z,8.30
2023-04-18T10:58:51.409Z,7.10
2023-04-18T11:01:38.033Z,7.18
2023-04-18T11:06:53.118Z,7.32
2023-04-18T11:09:19.829Z,6.78
2023-04-18T11:11:46.511Z,8.02
2023-04-18T11:14:13.382Z,6.93
2023-04-18T11:16:40.533Z,6.38
2023-04-18T11:19:25.795Z,6.72
2023-04-18T11:21:52.723Z,6.30
2023-04-18T11:24:24.078Z,6.82
2023-04-18T11:26:55.704Z,6.63
2023-04-18T11:29:22.929Z,6.88
2023-04-18T11:31:55.852Z,6.70
2023-04-18T11:34:31.600Z,8.30
2023-04-18T11:36:58.334Z,7.68
2023-04-18T11:39:25.030Z,6.93
2023-04-18T11:41:51.848Z,7.60
2023-04-18T11:44:25.814Z,7.25
2023-04-18T11:46:53.286Z,7.45
2023-04-18T11:49:32.926Z,6.80
2023-04-18T11:52:01.128Z,7.05
2023-04-18T11:54:48.095Z,7.78
2023-04-18T11:57:21.023Z,7.95
2023-04-18T11:59:52.666Z,6.70
2023-04-18T12:02:20.442Z,7.50
2023-04-18T12:04:53.884Z,7.03
2023-04-18T12:07:42.055Z,7.10
2023-04-18T12:10:20.872Z,6.82
2023-04-18T12:12:53.125Z,7.15
2023-04-18T12:15:21.723Z,6.70
2023-04-18T12:17:48.564Z,7.57
2023-04-18T12:20:16.088Z,14.38
2023-04-18T12:22:49.575Z,7.47
2023-04-18T12:25:26.942Z,8.35
2023-04-18T12:28:03.486Z,7.10
2023-04-18T12:30:31.851Z,6.68
2023-04-18T12:33:03.069Z,6.63
2023-04-18T12:35:32.913Z,7.53
2023-04-18T12:38:02.203Z,6.68
2023-04-18T12:40:30.056Z,6.60
2023-04-18T12:42:56.918Z,6.25
2023-04-18T12:45:24.402Z,6.70
2023-04-18T12:47:52.633Z,5.68
2023-04-18T12:50:21.836Z,5.80
2023-04-18T12:52:48.874Z,5.43
2023-04-18T12:55:15.774Z,6.00
2023-04-18T12:57:42.883Z,5.18
2023-04-18T13:00:11.190Z,5.30
2023-04-18T13:02:40.308Z,5.30
2023-04-18T13:05:08.823Z,5.30
2023-04-18T13:07:38.079Z,4.70
2023-04-18T13:10:05.375Z,5.28
2023-04-18T13:12:32.038Z,5.60
2023-04-18T13:14:58.742Z,5.07
2023-04-18T13:17:25.914Z,6.38
2023-04-18T13:19:52.650Z,5.38
2023-04-18T13:22:20.446Z,5.15
2023-04-18T13:24:47.534Z,6.35
2023-04-18T13:27:14.855Z,5.65
2023-04-18T13:29:42.652Z,6.57
2023-04-18T13:32:09.674Z,6.47
2023-04-18T13:34:44.264Z,5.80
2023-04-18T13:37:11.241Z,5.88
2023-04-18T13:39:37.931Z,5.72
2023-04-18T13:42:04.726Z,6.45
2023-04-18T13:44:31.721Z,7.07
2023-04-18T13:46:58.478Z,11.65
2023-04-18T13:49:25.204Z,7.35
2023-04-18T13:51:57.233Z,7.20
2023-04-18T13:54:28.398Z,7.30
2023-04-18T13:56:57.103Z,7.15
2023-04-18T13:59:25.168Z,6.13
2023-04-18T14:01:52.608Z,7.13
2023-04-18T14:04:21.665Z,6.60
2023-04-18T14:06:48.974Z,7.55
2023-04-18T14:09:16.663Z,7.30
2023-04-18T14:11:43.494Z,7.65
2023-04-18T14:14:10.184Z,7.93
2023-04-18T14:16:37.010Z,7.65
2023-04-18T14:19:03.721Z,8.32
2023-04-18T14:21:31.073Z,8.68
2023-04-18T14:23:57.838Z,9.07
2023-04-18T14:26:24.505Z,8.73
2023-04-18T14:28:51.445Z,9.10
2023-04-18T14:31:18.175Z,8.75
2023-04-18T14:33:44.906Z,7.38
2023-04-18T14:36:11.802Z,8.50
2023-04-18T14:38:38.548Z,8.95
2023-04-18T14:41:05.582Z,9.95
2023-04-18T14:43:32.462Z,9.25
2023-04-18T14:45:59.883Z,9.05
2023-04-18T14:48:27.460Z,9.50
2023-04-18T14:51:02.590Z,9.63
2023-04-18T14:53:29.605Z,12.85
2023-04-18T14:55:56.460Z,9.98
2023-04-18T14:58:23.162Z,10.27
2023-04-18T15:00:51.354Z,10.20
2023-04-18T15:03:18.107Z,9.77
2023-04-18T15:05:46.522Z,10.15
2023-04-18T15:08:14.537Z,10.27
2023-04-18T15:10:42.480Z,11.43
2023-04-18T15:13:10.065Z,9.77
2023-04-18T15:15:37.876Z,10.50
2023-04-18T15:18:04.755Z,10.70
2023-04-18T15:20:31.751Z,11.20
2023-04-18T15:22:58.386Z,11.10
2023-04-18T15:25:26.077Z,11.35
2023-04-18T15:27:53.195Z,14.48
2023-04-18T15:30:20.217Z,12.48
2023-04-18T15:32:48.335Z,12.30
2023-04-18T15:35:15.146Z,13.85
2023-04-18T15:37:41.895Z,11.40
2023-04-18T15:40:11.110Z,11.13
2023-04-18T15:42:37.780Z,12.70
2023-04-18T15:45:04.977Z,12.48
2023-04-18T15:47:34.009Z,13.88
2023-04-18T15:50:00.937Z,12.65
2023-04-18T15:52:27.568Z,13.93
2023-04-18T15:54:54.519Z,13.80
2023-04-18T15:57:21.721Z,12.73
2023-04-18T15:59:48.377Z,13.73
2023-04-18T16:02:15.191Z,16.00
2023-04-18T16:04:41.969Z,15.82
2023-04-18T16:07:09.039Z,15.48
2023-04-18T16:09:35.714Z,15.20
2023-04-18T16:12:03.241Z,13.73
2023-04-18T16:14:31.161Z,13.00
2023-04-18T16:16:58.657Z,14.85
2023-04-18T16:19:25.315Z,13.82
2023-04-18T16:21:52.162Z,14.57
2023-04-18T16:24:18.829Z,14.18
2023-04-18T16:26:45.626Z,12.95
2023-04-18T16:29:12.327Z,13.27
2023-04-18T16:31:39.142Z,15.45
2023-04-18T16:34:05.879Z,13.43
2023-04-18T16:36:35.868Z,16.55
2023-04-18T16:39:02.549Z,18.42
2023-04-18T16:41:29.192Z,18.65
2023-04-18T16:43:55.827Z,16.33
2023-04-18T16:46:22.608Z,14.98
2023-04-18T16:48:51.802Z,14.65
2023-04-18T16:51:19.167Z,15.80
2023-04-18T16:53:46.684Z,14.65
2023-04-18T16:56:13.371Z,11.50
2023-04-18T16:58:40.515Z,11.60
2023-04-18T17:01:08.198Z,12.18
2023-04-18T17:03:35.074Z,13.30
2023-04-18T17:06:01.803Z,11.05
2023-04-18T17:08:32.921Z,12.00
2023-04-18T17:10:59.681Z,11.68
2023-04-18T17:13:27.149Z,12.63
2023-04-18T17:15:54.233Z,14.10
2023-04-18T17:18:21.011Z,13.93
2023-04-18T17:20:47.927Z,12.23
2023-04-18T17:23:14.743Z,12.30
2023-04-18T17:25:41.553Z,11.45
2023-04-18T17:28:08.176Z,11.98
2023-04-18T17:30:34.864Z,11.70
2023-04-18T17:33:01.510Z,10.23
2023-04-18T17:35:28.222Z,10.57
2023-04-18T17:37:54.858Z,10.75
2023-04-18T17:40:21.585Z,11.65
2023-04-18T17:42:48.390Z,10.60
2023-04-18T17:45:15.088Z,13.23
2023-04-18T17:47:41.748Z,8.90
2023-04-18T17:50:09.007Z,9.95
2023-04-18T17:52:35.694Z,11.00
2023-04-18T17:55:02.532Z,11.48
2023-04-18T17:57:30.416Z,14.50
2023-04-18T17:59:57.245Z,12.00
2023-04-18T18:02:24.125Z,9.23
2023-04-18T18:04:51.558Z,11.02
2023-04-18T18:07:18.374Z,11.52
2023-04-18T18:09:47.809Z,11.05
2023-04-18T18:12:14.499Z,11.68
2023-04-18T18:14:41.234Z,12.60
2023-04-18T18:17:07.937Z,11.93
2023-04-18T18:19:36.332Z,10.85
2023-04-18T18:22:03.093Z,11.30
2023-04-18T18:24:29.857Z,11.88
2023-04-18T18:26:57.978Z,11.77
2023-04-18T18:29:24.677Z,10.98
2023-04-18T18:31:51.393Z,11.70
2023-04-18T18:34:19.796Z,12.05
2023-04-18T18:36:47.130Z,12.60
2023-04-18T18:39:16.336Z,13.27
2023-04-18T18:41:43.335Z,15.68
2023-04-18T18:44:10.146Z,15.68
2023-04-18T18:46:36.899Z,11.90
2023-04-18T18:49:03.788Z,14.18
2023-04-18T18:51:30.913Z,13.32
2023-04-18T18:53:57.927Z,13.65
2023-04-18T18:56:24.709Z,11.80
2023-04-18T18:58:53.222Z,14.75
2023-04-18T19:01:20.517Z,11.82
2023-04-18T19:03:47.307Z,15.73
2023-04-18T19:06:14.755Z,13.63
2023-04-18T19:08:41.405Z,18.08
2023-04-18T19:11:08.722Z,12.00
2023-04-18T19:13:35.403Z,13.23
2023-04-18T19:16:02.122Z,12.05
2023-04-18T19:18:28.825Z,10.85
2023-04-18T19:20:55.466Z,10.88
2023-04-18T19:23:23.767Z,12.00
2023-04-18T19:25:51.214Z,11.20
2023-04-18T19:28:18.448Z,11.68
2023-04-18T19:30:46.336Z,10.55
2023-04-18T19:33:13.042Z,10.52
2023-04-18T19:35:39.947Z,10.50
2023-04-18T19:38:06.709Z,10.48
2023-04-18T19:40:33.346Z,10.10
2023-04-18T19:42:59.994Z,11.07
2023-04-18T19:45:26.690Z,10.98
2023-04-18T19:47:53.376Z,10.55
2023-04-18T19:50:20.123Z,9.77
2023-04-18T19:52:46.860Z,8.95
2023-04-18T19:55:13.582Z,8.95
2023-04-18T19:57:41.379Z,8.75
2023-04-18T20:00:12.546Z,9.25
2023-04-18T20:02:42.719Z,8.68
2023-04-18T20:05:10.092Z,8.85
2023-04-18T20:07:37.065Z,9.00
2023-04-18T20:10:04.509Z,8.45
2023-04-18T20:12:31.367Z,8.25
2023-04-18T20:14:58.960Z,9.77
2023-04-18T20:17:26.134Z,10.98
2023-04-18T20:19:52.964Z,9.07
2023-04-18T20:22:19.939Z,8.45
2023-04-18T20:24:48.537Z,8.60
2023-04-18T20:27:15.285Z,9.20
2023-04-18T20:29:41.978Z,9.55
2023-04-18T20:32:08.672Z,8.65
2023-04-18T20:34:35.881Z,7.63
2023-04-18T20:37:02.623Z,7.88
2023-04-18T20:39:29.496Z,7.53
2023-04-18T20:41:57.673Z,8.18
2023-04-18T20:44:24.821Z,8.60
2023-04-18T20:46:54.760Z,7.97
2023-04-18T20:49:21.502Z,8.75
2023-04-18T20:51:48.165Z,8.30
2023-04-18T20:54:15.097Z,7.53
2023-04-18T20:56:42.068Z,7.45
2023-04-18T20:59:08.803Z,8.00
2023-04-18T21:01:37.041Z,8.38
2023-04-18T21:04:04.154Z,6.97
2023-04-18T21:06:31.042Z,6.47
2023-04-18T21:08:57.676Z,7.05
2023-04-18T21:11:24.324Z,7.85
2023-04-18T21:13:50.967Z,7.72
2023-04-18T21:16:17.736Z,6.72
2023-04-18T21:18:44.541Z,7.63
2023-04-18T21:21:11.775Z,6.68
2023-04-18T21:23:42.660Z,7.15
2023-04-18T21:26:12.436Z,5.93
2023-04-18T21:28:58.890Z,6.95
2023-04-18T21:31:26.995Z,6.68
2023-04-18T21:33:55.236Z,6.57
2023-04-18T21:36:23.014Z,6.55
2023-04-18T21:38:53.320Z,8.68
2023-04-18T21:41:20.839Z,7.18
2023-04-18T21:43:47.981Z,7.13
2023-04-18T21:46:15.082Z,6.85
2023-04-18T21:48:43.581Z,7.47
2023-04-18T21:51:11.601Z,6.03
2023-04-18T21:53:39.145Z,7.00
2023-04-18T21:56:06.676Z,6.97
2023-04-18T21:58:33.613Z,6.70
2023-04-18T22:01:00.521Z,6.60
2023-04-18T22:03:28.617Z,6.95
2023-04-18T22:05:58.757Z,6.85
2023-04-18T22:08:26.231Z,6.47
2023-04-18T22:10:57.802Z,6.18
2023-04-18T22:13:26.126Z,6.03
2023-04-18T22:15:52.877Z,6.05
2023-04-18T22:18:19.564Z,5.72
2023-04-18T22:20:46.889Z,6.25
2023-04-18T22:23:14.004Z,5.75
2023-04-18T22:25:40.884Z,5.60
2023-04-18T22:28:07.716Z,5.38
2023-04-18T22:30:34.634Z,5.03
2023-04-18T22:33:01.546Z,5.57
2023-04-18T22:35:28.453Z,5.78
2023-04-18T22:37:55.796Z,5.43
2023-04-18T22:40:22.498Z,5.38
2023-04-18T22:42:51.802Z,5.35
2023-04-18T22:45:19.401Z,5.55
2023-04-18T22:47:46.655Z,6.30
2023-04-18T22:50:14.005Z,5.03
2023-04-18T22:52:41.127Z,5.95
2023-04-18T22:55:08.530Z,6.15
2023-04-18T22:57:35.389Z,6.05
2023-04-18T23:00:02.350Z,5.88
2023-04-18T23:02:29.244Z,5.60
2023-04-18T23:04:58.867Z,5.60
2023-04-18T23:07:25.820Z,5.35
2023-04-18T23:09:52.449Z,5.47
2023-04-18T23:12:19.245Z,5.38
2023-04-18T23:14:45.907Z,5.30
2023-04-18T23:17:12.567Z,4.82
2023-04-18T23:19:39.284Z,5.80
2023-04-18T23:22:06.015Z,6.22
2023-04-18T23:24:32.701Z,5.53
2023-04-18T23:26:59.368Z,5.68
2023-04-18T23:29:26.012Z,6.00
2023-04-18T23:31:52.723Z,6.00
2023-04-18T23:34:19.453Z,5.60
2023-04-18T23:36:46.604Z,5.78
2023-04-18T23:39:13.257Z,6.07
2023-04-18T23:41:39.924Z,5.70
2023-04-18T23:44:06.633Z,6.55
2023-04-18T23:46:35.076Z,6.53
2023-04-18T23:49:03.090Z,6.95
2023-04-18T23:51:29.811Z,6.03
2023-04-18T23:53:56.486Z,6.88
2023-04-18T23:56:23.256Z,6.35
2023-04-18T23:58:50.121Z,6.30
